createdAt,value
2018-07-10T00:01:42.182Z,95.80
2018-07-10T00:04:37.154Z,95.80
2018-07-10T00:07:16.343Z,96.10
2018-07-10T00:09:56.057Z,96.00
2018-07-10T00:12:24.223Z,96.10
2018-07-10T00:14:52.416Z,96.20
2018-07-10T00:17:20.566Z,96.20
2018-07-10T00:19:48.707Z,96.30
2018-07-10T00:22:16.946Z,96.20
2018-07-10T00:24:45.107Z,96.00
2018-07-10T00:27:13.253Z,96.30
2018-07-10T00:29:41.389Z,96.20
2018-07-10T00:32:09.582Z,96.30
2018-07-10T00:34:37.739Z,96.50
2018-07-10T00:37:06.053Z,96.50
2018-07-10T00:39:34.290Z,96.70
2018-07-10T00:42:02.494Z,96.50
2018-07-10T00:44:30.645Z,96.60
2018-07-10T00:46:58.832Z,96.50
2018-07-10T00:49:26.982Z,96.70
2018-07-10T00:51:55.290Z,96.50
2018-07-10T00:54:23.462Z,96.50
2018-07-10T00:56:51.622Z,96.70
2018-07-10T00:59:19.770Z,96.50
2018-07-10T01:01:47.914Z,96.60
2018-07-10T01:04:16.202Z,96.70
2018-07-10T01:06:44.382Z,96.60
2018-07-10T01:09:13.394Z,96.70
2018-07-10T01:11:42.021Z,96.60
2018-07-10T01:14:10.199Z,96.60
2018-07-10T01:16:39.286Z,96.80
2018-07-10T01:19:11.857Z,96.90
2018-07-10T01:21:40.046Z,96.40
2018-07-10T01:24:08.214Z,96.20
2018-07-10T01:26:38.598Z,96.50
2018-07-10T01:29:14.950Z,96.40
2018-07-10T01:31:44.749Z,96.30
2018-07-10T01:34:13.452Z,96.70
2018-07-10T01:36:41.582Z,96.30
2018-07-10T01:39:09.730Z,96.00
2018-07-10T01:41:37.905Z,96.10
2018-07-10T01:44:07.055Z,96.10
2018-07-10T01:46:35.200Z,96.20
2018-07-10T01:49:03.606Z,96.20
2018-07-10T01:51:32.742Z,96.50
2018-07-10T01:54:00.969Z,96.40
2018-07-10T01:56:29.565Z,96.20
2018-07-10T01:58:58.083Z,96.00
2018-07-10T02:01:26.282Z,96.20
2018-07-10T02:03:55.643Z,96.20
2018-07-10T02:06:23.873Z,96.20
2018-07-10T02:08:52.234Z,96.10
2018-07-10T02:11:20.414Z,96.10
2018-07-10T02:13:49.094Z,96.10
2018-07-10T02:16:17.291Z,95.70
2018-07-10T02:18:45.842Z,95.30
2018-07-10T02:21:14.063Z,95.40
2018-07-10T02:23:44.122Z,95.60
2018-07-10T02:26:21.531Z,95.60
2018-07-10T02:28:50.517Z,95.40
2018-07-10T02:31:18.726Z,95.20
2018-07-10T02:33:47.071Z,95.30
2018-07-10T02:36:15.336Z,95.20
2018-07-10T02:38:46.206Z,94.90
2018-07-10T02:43:49.631Z,95.00
2018-07-10T02:46:17.925Z,95.10
2018-07-10T02:48:46.118Z,95.20
2018-07-10T02:51:14.338Z,95.10
2018-07-10T02:53:44.982Z,95.40
2018-07-10T02:56:15.102Z,95.30
2018-07-10T02:58:43.323Z,95.50
2018-07-10T03:01:11.562Z,95.20
2018-07-10T03:03:41.674Z,95.40
2018-07-10T03:06:09.927Z,95.20
2018-07-10T03:08:38.178Z,95.40
2018-07-10T03:11:06.639Z,95.50
2018-07-10T03:13:35.315Z,95.30
2018-07-10T03:16:03.642Z,95.10
2018-07-10T03:18:32.183Z,95.00
2018-07-10T03:21:00.406Z,95.30
2018-07-10T03:23:28.602Z,95.10
2018-07-10T03:25:56.934Z,95.40
2018-07-10T03:30:53.270Z,96.30
2018-07-10T03:33:21.473Z,96.00
2018-07-10T03:35:49.839Z,96.00
2018-07-10T03:40:46.014Z,96.10
2018-07-10T03:43:14.214Z,96.30
2018-07-10T03:45:42.510Z,96.20
2018-07-10T03:48:10.717Z,96.30
2018-07-10T03:50:39.101Z,96.20
2018-07-10T03:53:07.358Z,96.30
2018-07-10T03:55:36.898Z,96.20
2018-07-10T03:58:05.182Z,96.20
2018-07-10T04:03:02.030Z,96.20
2018-07-10T04:05:30.229Z,96.20
2018-07-10T04:07:58.619Z,96.60
2018-07-10T04:10:32.713Z,96.50
2018-07-10T04:13:07.903Z,96.70
2018-07-10T04:15:36.101Z,96.80
2018-07-10T04:18:06.900Z,96.90
2018-07-10T04:23:38.710Z,97.00
2018-07-10T04:26:22.571Z,97.30
2018-07-10T04:31:29.310Z,97.20
2018-07-10T04:33:57.862Z,97.20
2018-07-10T04:38:55.126Z,97.30
2018-07-10T04:41:26.530Z,97.50
2018-07-10T04:44:11.357Z,97.60
2018-07-10T04:46:57.508Z,97.60
2018-07-10T04:49:32.556Z,97.60
2018-07-10T04:52:24.261Z,97.60
2018-07-10T04:54:58.493Z,97.50
2018-07-10T04:57:30.773Z,97.40
2018-07-10T05:00:00.973Z,97.50
2018-07-10T05:02:29.187Z,97.50
2018-07-10T05:04:57.429Z,97.10
2018-07-10T05:07:25.625Z,97.30
2018-07-10T05:12:22.472Z,97.00
2018-07-10T05:14:53.154Z,97.10
2018-07-10T05:17:21.373Z,97.10
2018-07-10T05:19:49.610Z,97.10
2018-07-10T05:22:18.027Z,97.10
2018-07-10T05:24:46.445Z,96.90
2018-07-10T05:27:14.850Z,96.70
2018-07-10T05:29:43.112Z,96.80
2018-07-10T05:32:11.655Z,96.60
2018-07-10T05:34:40.404Z,96.70
2018-07-10T05:37:10.540Z,96.90
2018-07-10T05:39:43.911Z,96.80
2018-07-10T05:42:12.454Z,96.80
2018-07-10T05:44:40.591Z,96.50
2018-07-10T05:47:08.971Z,96.50
2018-07-10T05:49:38.817Z,96.70
2018-07-10T05:52:07.070Z,96.30
2018-07-10T05:54:37.661Z,96.50
2018-07-10T05:57:06.773Z,96.20
2018-07-10T05:59:35.394Z,96.40
2018-07-10T06:02:03.622Z,96.40
2018-07-10T06:04:32.548Z,96.20
2018-07-10T06:07:01.230Z,96.50
2018-07-10T06:09:29.435Z,96.60
2018-07-10T06:11:57.912Z,96.20
2018-07-10T06:14:26.681Z,96.20
2018-07-10T06:16:54.919Z,96.00
2018-07-10T06:19:23.138Z,96.20
2018-07-10T06:21:52.710Z,96.20
2018-07-10T06:24:24.914Z,96.30
2018-07-10T06:27:00.262Z,96.40
2018-07-10T06:30:06.500Z,96.50
2018-07-10T06:33:22.192Z,96.50
2018-07-10T06:36:01.778Z,96.20
2018-07-10T06:38:30.042Z,96.60
2018-07-10T06:40:58.259Z,96.90
2018-07-10T06:43:37.146Z,96.40
2018-07-10T06:46:05.580Z,96.50
2018-07-10T06:48:36.938Z,96.80
2018-07-10T06:51:10.126Z,96.60
2018-07-10T06:53:38.383Z,97.20
2018-07-10T06:56:06.611Z,97.70
2018-07-10T06:58:34.815Z,98.30
2018-07-10T07:01:03.014Z,98.70
2018-07-10T07:03:31.217Z,98.60
2018-07-10T07:05:59.458Z,99.00
2018-07-10T07:08:27.661Z,98.60
2018-07-10T07:10:55.946Z,98.40
2018-07-10T07:18:20.146Z,98.10
2018-07-10T07:20:48.346Z,97.60
2018-07-10T07:23:16.657Z,98.00
2018-07-10T07:25:45.319Z,97.70
2018-07-10T07:28:13.533Z,97.60
2018-07-10T07:30:41.745Z,97.90
2018-07-10T07:33:09.963Z,97.80
2018-07-10T07:35:38.232Z,98.30
2018-07-10T07:38:06.450Z,98.50
2018-07-10T07:40:34.650Z,98.40
2018-07-10T07:43:02.872Z,99.10
2018-07-10T07:47:59.015Z,99.50
2018-07-10T07:50:27.328Z,99.40
2018-07-10T07:52:55.522Z,99.90
2018-07-10T07:55:24.146Z,99.70
2018-07-10T07:57:52.354Z,99.90
2018-07-10T08:00:20.591Z,99.90
2018-07-10T08:02:48.750Z,99.90
2018-07-10T08:05:17.378Z,99.90
2018-07-10T08:07:45.578Z,99.90
2018-07-10T08:10:14.035Z,99.90
2018-07-10T08:12:42.230Z,99.90
2018-07-10T08:15:11.011Z,99.90
2018-07-10T08:17:39.278Z,99.90
2018-07-10T08:20:07.611Z,99.90
2018-07-10T08:22:35.946Z,99.90
2018-07-10T08:25:04.850Z,99.90
2018-07-10T08:27:34.047Z,99.90
2018-07-10T08:30:02.256Z,99.90
2018-07-10T08:32:30.582Z,99.90
2018-07-10T08:34:58.935Z,99.90
2018-07-10T08:37:27.365Z,99.90
2018-07-10T08:39:55.568Z,99.90
2018-07-10T08:42:23.775Z,99.90
2018-07-10T08:44:52.049Z,99.90
2018-07-10T08:47:20.250Z,99.90
2018-07-10T08:49:48.750Z,99.90
2018-07-10T08:52:17.025Z,99.90
2018-07-10T08:54:45.245Z,99.90
2018-07-10T08:59:46.014Z,99.90
2018-07-10T09:02:14.202Z,99.90
2018-07-10T09:04:42.484Z,99.90
2018-07-10T09:07:10.658Z,99.90
2018-07-10T09:09:38.926Z,99.90
2018-07-10T09:12:07.822Z,99.90
2018-07-10T09:14:36.058Z,99.90
2018-07-10T09:17:04.266Z,99.90
2018-07-10T09:19:32.470Z,99.90
2018-07-10T09:22:06.379Z,99.80
2018-07-10T09:24:36.358Z,99.90
2018-07-10T09:27:06.967Z,99.90
2018-07-10T09:29:35.186Z,99.90
2018-07-10T09:34:31.378Z,99.90
2018-07-10T09:36:59.854Z,99.60
2018-07-10T09:39:28.511Z,99.80
2018-07-10T09:41:57.293Z,99.90
2018-07-10T09:44:25.916Z,99.80
2018-07-10T09:46:54.130Z,99.90
2018-07-10T09:49:22.345Z,99.90
2018-07-10T09:51:50.550Z,99.90
2018-07-10T09:54:18.762Z,99.90
2018-07-10T09:56:46.946Z,99.90
2018-07-10T09:59:15.079Z,99.90
2018-07-10T10:01:43.230Z,99.90
2018-07-10T10:04:11.368Z,99.90
2018-07-10T10:06:39.518Z,99.90
2018-07-10T10:09:07.690Z,99.90
2018-07-10T10:11:35.862Z,99.90
2018-07-10T10:14:04.012Z,99.90
2018-07-10T10:16:32.187Z,99.90
2018-07-10T10:19:00.334Z,99.90
2018-07-10T10:21:29.335Z,99.90
2018-07-10T10:23:58.206Z,99.90
2018-07-10T10:26:27.318Z,99.90
2018-07-10T10:28:55.445Z,99.90
2018-07-10T10:31:23.643Z,99.90
2018-07-10T10:33:51.801Z,99.90
2018-07-10T10:38:48.254Z,99.90
2018-07-10T10:41:17.038Z,99.90
2018-07-10T10:43:46.329Z,99.90
2018-07-10T10:46:16.347Z,99.90
2018-07-10T10:48:44.494Z,99.90
2018-07-10T10:51:13.653Z,99.90
2018-07-10T10:53:42.234Z,99.90
2018-07-10T10:58:38.908Z,99.90
2018-07-10T11:01:07.105Z,99.90
2018-07-10T11:03:35.309Z,99.90
2018-07-10T11:06:04.421Z,99.90
2018-07-10T11:08:32.634Z,99.90
2018-07-10T11:11:00.855Z,99.90
2018-07-10T11:13:29.042Z,99.90
2018-07-10T11:15:57.259Z,99.90
2018-07-10T11:18:34.146Z,99.90
2018-07-10T11:24:04.066Z,99.90
2018-07-10T11:29:01.250Z,99.90
2018-07-10T11:31:29.514Z,99.90
2018-07-10T11:33:57.726Z,99.90
2018-07-10T11:36:25.920Z,99.90
2018-07-10T11:38:57.231Z,99.90
2018-07-10T11:41:25.431Z,99.90
2018-07-10T11:43:53.658Z,99.90
2018-07-10T11:46:21.879Z,99.90
2018-07-10T11:48:50.148Z,99.90
2018-07-10T11:51:18.359Z,99.90
2018-07-10T11:53:46.570Z,99.90
2018-07-10T11:56:14.742Z,99.90
2018-07-10T11:58:42.925Z,99.90
2018-07-10T12:01:11.078Z,99.90
2018-07-10T12:03:40.634Z,99.90
2018-07-10T12:08:37.765Z,99.90
2018-07-10T12:11:11.655Z,99.90
2018-07-10T12:13:40.402Z,99.90
2018-07-10T12:16:08.871Z,99.90
2018-07-10T12:18:37.051Z,99.90
2018-07-10T12:21:05.422Z,99.90
2018-07-10T12:23:33.564Z,99.90
2018-07-10T12:26:04.325Z,99.90
2018-07-10T12:28:32.789Z,99.90
2018-07-10T12:31:01.510Z,99.90
2018-07-10T12:33:29.686Z,99.90
2018-07-10T12:35:57.969Z,99.90
2018-07-10T12:38:26.298Z,99.90
2018-07-10T12:40:54.430Z,99.90
2018-07-10T12:43:22.586Z,99.90
2018-07-10T12:45:50.817Z,99.90
2018-07-10T12:48:18.968Z,99.90
2018-07-10T12:50:47.122Z,99.90
2018-07-10T12:53:15.270Z,99.90
2018-07-10T12:55:43.537Z,99.90
2018-07-10T12:58:11.703Z,99.90
2018-07-10T13:00:40.317Z,99.90
2018-07-10T13:03:10.230Z,99.90
2018-07-10T13:05:45.653Z,99.90
2018-07-10T13:08:13.785Z,99.90
2018-07-10T13:10:41.913Z,99.90
2018-07-10T13:13:10.057Z,99.90
2018-07-10T13:15:38.288Z,99.90
2018-07-10T13:18:06.435Z,99.90
2018-07-10T13:20:34.590Z,99.90
2018-07-10T13:23:02.962Z,99.90
2018-07-10T13:25:31.266Z,99.90
2018-07-10T13:27:59.914Z,99.90
2018-07-10T13:30:28.038Z,99.90
2018-07-10T13:32:56.194Z,99.90
2018-07-10T13:35:24.373Z,99.90
2018-07-10T13:37:53.377Z,99.90
2018-07-10T13:40:21.558Z,99.90
2018-07-10T13:42:59.599Z,99.90
2018-07-10T13:45:29.056Z,99.90
2018-07-10T13:47:57.230Z,99.90
2018-07-10T13:50:27.597Z,99.90
2018-07-10T13:52:56.869Z,99.90
2018-07-10T13:55:26.775Z,99.90
2018-07-10T13:58:08.285Z,99.90
2018-07-10T14:03:05.918Z,99.90
2018-07-10T14:05:34.177Z,99.90
2018-07-10T14:08:02.313Z,99.90
2018-07-10T14:10:30.450Z,99.90
2018-07-10T14:12:58.941Z,99.90
2018-07-10T14:15:27.134Z,99.90
2018-07-10T14:17:56.556Z,99.90
2018-07-10T14:20:24.929Z,99.90
2018-07-10T14:22:53.217Z,99.90
2018-07-10T14:25:21.374Z,99.90
2018-07-10T14:27:49.511Z,99.90
2018-07-10T14:30:17.653Z,99.90
2018-07-10T14:32:45.796Z,99.90
2018-07-10T14:35:13.934Z,99.90
2018-07-10T14:37:42.074Z,99.90
2018-07-10T14:40:10.221Z,99.90
2018-07-10T14:42:38.477Z,99.90
2018-07-10T14:45:07.249Z,99.90
2018-07-10T14:47:36.846Z,99.90
2018-07-10T14:50:05.045Z,99.90
2018-07-10T14:52:33.206Z,99.90
2018-07-10T14:55:01.455Z,99.90
2018-07-10T14:57:29.866Z,99.90
2018-07-10T14:59:58.118Z,99.90
2018-07-10T15:02:26.326Z,99.90
2018-07-10T15:04:54.539Z,99.90
2018-07-10T15:07:22.837Z,99.90
2018-07-10T15:09:51.046Z,99.90
2018-07-10T15:12:19.258Z,99.90
2018-07-10T15:14:47.543Z,99.90
2018-07-10T15:17:20.938Z,99.90
2018-07-10T15:19:49.146Z,99.90
2018-07-10T15:22:17.359Z,99.90
2018-07-10T15:24:45.601Z,99.90
2018-07-10T15:27:13.884Z,99.90
2018-07-10T15:29:42.091Z,99.90
2018-07-10T15:32:10.328Z,99.90
2018-07-10T15:34:38.890Z,99.90
2018-07-10T15:37:07.390Z,99.90
2018-07-10T15:39:35.607Z,99.90
2018-07-10T15:42:04.842Z,99.90
2018-07-10T15:44:33.030Z,99.90
2018-07-10T15:47:01.263Z,99.90
2018-07-10T15:49:29.513Z,99.90
2018-07-10T15:51:59.126Z,99.90
2018-07-10T15:54:27.309Z,99.90
2018-07-10T15:56:55.525Z,99.90
2018-07-10T15:59:23.718Z,99.90
2018-07-10T16:01:51.970Z,99.90
2018-07-10T16:04:20.205Z,99.90
2018-07-10T16:06:48.430Z,99.90
2018-07-10T16:09:18.620Z,99.90
2018-07-10T16:11:49.026Z,99.90
2018-07-10T16:14:17.222Z,99.90
2018-07-10T16:16:46.461Z,99.90
2018-07-10T16:19:16.932Z,99.90
2018-07-10T16:21:53.891Z,99.90
2018-07-10T16:24:22.295Z,99.90
2018-07-10T16:26:50.515Z,99.90
2018-07-10T16:29:19.766Z,99.90
2018-07-10T16:34:15.909Z,99.90
2018-07-10T16:36:44.097Z,99.90
2018-07-10T16:39:12.293Z,99.90
2018-07-10T16:41:45.922Z,99.90
2018-07-10T16:44:14.138Z,99.90
2018-07-10T16:46:47.228Z,99.90
2018-07-10T16:49:18.731Z,99.90
2018-07-10T16:52:24.754Z,99.90
2018-07-10T16:54:53.250Z,99.40
2018-07-10T16:57:21.497Z,98.70
2018-07-10T16:59:49.698Z,98.60
2018-07-10T17:02:17.998Z,99.00
2018-07-10T17:04:46.570Z,98.10
2018-07-10T17:07:14.766Z,97.00
2018-07-10T17:09:42.997Z,96.60
2018-07-10T17:12:11.169Z,95.60
2018-07-10T17:14:39.558Z,96.60
2018-07-10T17:17:12.045Z,96.20
2018-07-10T17:19:40.337Z,96.60
2018-07-10T17:22:08.545Z,95.50
2018-07-10T17:24:36.778Z,94.70
2018-07-10T17:27:04.969Z,95.40
2018-07-10T17:29:33.271Z,96.00
2018-07-10T17:32:01.472Z,96.30
2018-07-10T17:34:29.674Z,94.30
2018-07-10T17:36:57.924Z,95.60
2018-07-10T17:39:26.634Z,97.00
2018-07-10T17:41:55.042Z,96.80
2018-07-10T17:44:23.262Z,95.80
2018-07-10T17:46:51.653Z,95.80
2018-07-10T17:49:19.859Z,95.70
2018-07-10T17:51:48.066Z,94.90
2018-07-10T17:54:16.287Z,94.30
2018-07-10T17:56:44.545Z,94.80
2018-07-10T17:59:12.682Z,94.10
2018-07-10T18:01:40.809Z,94.20
2018-07-10T18:04:08.946Z,94.80
2018-07-10T18:06:37.431Z,94.50
2018-07-10T18:09:06.501Z,94.20
2018-07-10T18:11:35.068Z,94.40
2018-07-10T18:14:03.214Z,94.60
2018-07-10T18:16:35.462Z,94.20
2018-07-10T18:19:05.124Z,94.50
2018-07-10T18:21:34.685Z,94.30
2018-07-10T18:24:02.840Z,95.10
2018-07-10T18:26:31.051Z,95.20
2018-07-10T18:31:27.141Z,95.30
2018-07-10T18:33:55.278Z,95.40
2018-07-10T18:36:23.458Z,95.00
2018-07-10T18:38:51.606Z,94.50
2018-07-10T18:41:19.837Z,95.00
2018-07-10T18:43:47.981Z,94.00
2018-07-10T18:46:16.476Z,94.80
2018-07-10T18:48:44.726Z,94.90
2018-07-10T18:51:12.861Z,94.60
2018-07-10T18:53:41.694Z,94.60
2018-07-10T18:56:10.003Z,93.90
2018-07-10T18:58:44.933Z,93.80
2018-07-10T19:03:46.537Z,94.00
2018-07-10T19:06:16.334Z,94.90
2018-07-10T19:08:45.830Z,95.40
2018-07-10T19:13:43.785Z,94.50
2018-07-10T19:16:11.994Z,95.00
2018-07-10T19:21:19.540Z,94.70
2018-07-10T19:23:49.119Z,95.10
2018-07-10T19:26:21.604Z,95.10
2018-07-10T19:31:20.185Z,94.80
2018-07-10T19:33:55.638Z,94.70
2018-07-10T19:36:24.486Z,95.60
2018-07-10T19:38:52.731Z,94.90
2018-07-10T19:41:21.828Z,94.50
2018-07-10T19:43:50.158Z,94.40
2018-07-10T19:46:18.446Z,94.80
2018-07-10T19:48:49.733Z,94.90
2018-07-10T19:53:53.405Z,94.80
2018-07-10T19:56:22.570Z,95.00
2018-07-10T19:58:50.875Z,95.00
2018-07-10T20:01:43.868Z,94.50
2018-07-10T20:04:15.962Z,94.30
2018-07-10T20:06:53.921Z,95.10
2018-07-10T20:09:22.214Z,94.70
2018-07-10T20:12:03.490Z,94.50
2018-07-10T20:14:35.337Z,94.70
2018-07-10T20:17:04.070Z,94.00
2018-07-10T20:19:45.557Z,94.80
2018-07-10T20:22:23.707Z,94.30
2018-07-10T20:25:01.163Z,94.00
2018-07-10T20:27:51.710Z,94.40
2018-07-10T20:30:27.034Z,95.70
2018-07-10T20:33:08.408Z,94.40
2018-07-10T20:35:36.613Z,95.10
2018-07-10T20:38:04.895Z,94.70
2018-07-10T20:40:36.378Z,95.60
2018-07-10T20:43:13.697Z,94.70
2018-07-10T20:45:46.619Z,95.20
2018-07-10T20:48:23.806Z,95.50
2018-07-10T20:51:02.897Z,94.80
2018-07-10T20:53:40.002Z,94.60
2018-07-10T20:56:13.430Z,95.20
2018-07-10T20:58:51.583Z,95.40
2018-07-10T21:01:19.718Z,95.10
2018-07-10T21:03:53.446Z,95.20
2018-07-10T21:06:33.906Z,95.10
2018-07-10T21:09:07.269Z,95.10
2018-07-10T21:11:46.846Z,95.20
2018-07-10T21:14:19.510Z,95.20
2018-07-10T21:16:54.946Z,95.20
2018-07-10T21:20:28.546Z,95.20
2018-07-10T21:24:07.577Z,95.20
2018-07-10T21:26:41.714Z,95.40
2018-07-10T21:29:21.735Z,95.40
2018-07-10T21:31:55.078Z,95.40
2018-07-10T21:34:27.754Z,95.50
2018-07-10T21:37:00.767Z,95.70
2018-07-10T21:39:52.033Z,95.90
2018-07-10T21:43:34.001Z,95.70
2018-07-10T21:46:13.054Z,96.00
2018-07-10T21:48:50.774Z,96.60
2018-07-10T21:51:18.990Z,96.10
2018-07-10T21:53:47.342Z,96.20
2018-07-10T21:56:15.592Z,96.30
2018-07-10T21:58:44.199Z,96.40
2018-07-10T22:01:51.578Z,96.80
2018-07-10T22:04:21.937Z,97.10
2018-07-10T22:06:53.621Z,96.90
2018-07-10T22:09:23.723Z,97.00
2018-07-10T22:11:52.293Z,97.40
2018-07-10T22:14:20.686Z,97.40
2018-07-10T22:16:48.885Z,97.10
2018-07-10T22:19:18.640Z,97.00
2018-07-10T22:21:46.856Z,97.10
2018-07-10T22:24:15.390Z,97.30
2018-07-10T22:26:43.610Z,97.50
2018-07-10T22:29:11.962Z,97.50
2018-07-10T22:31:45.638Z,97.60
2018-07-10T22:34:13.826Z,98.00
2018-07-10T22:36:42.027Z,97.60
2018-07-10T22:39:10.242Z,97.70
2018-07-10T22:41:39.177Z,97.80
2018-07-10T22:44:07.418Z,97.70
2018-07-10T22:46:35.628Z,97.70
2018-07-10T22:49:07.142Z,97.70
2018-07-10T22:51:35.381Z,97.80
2018-07-10T22:54:04.082Z,97.90
2018-07-10T22:56:33.802Z,98.10
2018-07-10T22:59:02.613Z,98.10
2018-07-10T23:01:31.503Z,97.90
2018-07-10T23:03:59.669Z,97.50
2018-07-10T23:08:55.846Z,98.10
2018-07-10T23:11:24.018Z,97.90
2018-07-10T23:13:52.247Z,98.00
2018-07-10T23:16:21.234Z,98.20
2018-07-10T23:18:49.431Z,97.50
2018-07-10T23:21:18.738Z,97.40
2018-07-10T23:23:47.322Z,97.70
2018-07-10T23:26:17.169Z,97.30
2018-07-10T23:31:15.341Z,97.20
2018-07-10T23:33:44.450Z,97.60
2018-07-10T23:39:01.658Z,97.80
2018-07-10T23:41:35.989Z,97.40
2018-07-10T23:44:06.635Z,97.70
2018-07-10T23:46:41.098Z,98.50
2018-07-10T23:49:13.824Z,98.50
2018-07-10T23:51:53.458Z,97.70
2018-07-10T23:54:21.621Z,98.30
2018-07-10T23:56:49.861Z,98.40
2018-07-10T23:59:18.067Z,98.10
